Terminal Aerodrome Forecast
Issued by NWS

Home | Current Version | Previous Version | Text Only | Print | Product List | Glossary On
Versions: 1 2 3 4 5 6 7 8 9 10 11 12 13 14 15 16 17 18 19 20
546
FTUS41 KBGM 101720
TAFITH
TAF
KITH 101720Z 1018/1118 28007KT 6SM -SHSN OVC035
      TEMPO 1018/1020 OVC025
     FM102300 27004KT P6SM BKN060
     FM111300 19005KT P6SM BKN030
     FM111500 19006KT P6SM OVC020=

USA.gov is the U.S. government's official web portal to all federal, state and local government web resources and services.